sensor_id;sensor_type;location;lat;lon;timestamp;pressure;altitude;pressure_sealevel;temperature;humidity
48624;BME280;34422;45.802;16.114;2022-11-15T00:01:14;100682.47;;;7.25;100.00
48624;BME280;34422;45.802;16.114;2022-11-15T00:03:41;100684.47;;;7.31;100.00
48624;BME280;34422;45.802;16.114;2022-11-15T00:06:08;100684.81;;;7.28;100.00
48624;BME280;34422;45.802;16.114;2022-11-15T00:08:35;100688.59;;;7.19;100.00
48624;BME280;34422;45.802;16.114;2022-11-15T00:11:03;100675.00;;;7.12;100.00
48624;BME280;34422;45.802;16.114;2022-11-15T00:13:30;100687.75;;;7.19;100.00
48624;BME280;34422;45.802;16.114;2022-11-15T00:15:58;100685.72;;;7.21;100.00
48624;BME280;34422;45.802;16.114;2022-11-15T00:18:26;100675.44;;;7.24;100.00
48624;BME280;34422;45.802;16.114;2022-11-15T00:20:53;100669.03;;;7.25;100.00
48624;BME280;34422;45.802;16.114;2022-11-15T00:23:20;100671.34;;;7.28;100.00
48624;BME280;34422;45.802;16.114;2022-11-15T00:25:47;100667.66;;;7.29;100.00
48624;BME280;34422;45.802;16.114;2022-11-15T00:28:13;100662.63;;;7.26;100.00
48624;BME280;34422;45.802;16.114;2022-11-15T00:30:40;100652.25;;;7.23;100.00
48624;BME280;34422;45.802;16.114;2022-11-15T00:33:08;100653.19;;;7.30;100.00
48624;BME280;34422;45.802;16.114;2022-11-15T00:35:36;100649.47;;;7.31;100.00
48624;BME280;34422;45.802;16.114;2022-11-15T00:38:03;100657.91;;;7.28;100.00
48624;BME280;34422;45.802;16.114;2022-11-15T00:40:30;100653.19;;;7.30;100.00
48624;BME280;34422;45.802;16.114;2022-11-15T00:42:57;100648.06;;;7.21;100.00
48624;BME280;34422;45.802;16.114;2022-11-15T00:45:24;100654.81;;;7.17;100.00
48624;BME280;34422;45.802;16.114;2022-11-15T00:47:51;100660.84;;;7.19;100.00
48624;BME280;34422;45.802;16.114;2022-11-15T00:50:19;100656.00;;;7.14;100.00
48624;BME280;34422;45.802;16.114;2022-11-15T00:52:45;100646.91;;;7.15;100.00
48624;BME280;34422;45.802;16.114;2022-11-15T00:55:14;100652.97;;;7.17;100.00
48624;BME280;34422;45.802;16.114;2022-11-15T00:57:42;100652.69;;;7.27;100.00
48624;BME280;34422;45.802;16.114;2022-11-15T01:00:09;100647.50;;;7.25;100.00
48624;BME280;34422;45.802;16.114;2022-11-15T01:02:37;100650.19;;;7.25;100.00
48624;BME280;34422;45.802;16.114;2022-11-15T01:05:04;100648.81;;;7.29;100.00
48624;BME280;34422;45.802;16.114;2022-11-15T01:07:31;100652.25;;;7.23;100.00
48624;BME280;34422;45.802;16.114;2022-11-15T01:09:58;100645.19;;;7.22;100.00
48624;BME280;34422;45.802;16.114;2022-11-15T01:12:25;100648.88;;;7.21;100.00
48624;BME280;34422;45.802;16.114;2022-11-15T01:14:52;100644.47;;;7.05;100.00
48624;BME280;34422;45.802;16.114;2022-11-15T01:17:19;100640.59;;;7.08;100.00
48624;BME280;34422;45.802;16.114;2022-11-15T01:19:46;100640.59;;;7.08;100.00
48624;BME280;34422;45.802;16.114;2022-11-15T01:22:13;100640.88;;;7.13;100.00
48624;BME280;34422;45.802;16.114;2022-11-15T01:24:39;100634.81;;;7.11;100.00
48624;BME280;34422;45.802;16.114;2022-11-15T01:27:06;100622.13;;;7.05;100.00
48624;BME280;34422;45.802;16.114;2022-11-15T01:29:33;100622.78;;;7.07;100.00
48624;BME280;34422;45.802;16.114;2022-11-15T01:32:00;100632.03;;;7.04;100.00
48624;BME280;34422;45.802;16.114;2022-11-15T01:34:27;100618.75;;;7.03;100.00
48624;BME280;34422;45.802;16.114;2022-11-15T01:36:54;100615.53;;;7.07;100.00
48624;BME280;34422;45.802;16.114;2022-11-15T01:39:21;100609.97;;;7.09;100.00
48624;BME280;34422;45.802;16.114;2022-11-15T01:41:47;100611.09;;;7.14;100.00
48624;BME280;34422;45.802;16.114;2022-11-15T01:47:03;100596.13;;;7.12;100.00
48624;BME280;34422;45.802;16.114;2022-11-15T01:49:33;100605.63;;;7.08;100.00
48624;BME280;34422;45.802;16.114;2022-11-15T01:52:05;100589.28;;;7.09;100.00
48624;BME280;34422;45.802;16.114;2022-11-15T01:54:33;100591.97;;;7.09;100.00
48624;BME280;34422;45.802;16.114;2022-11-15T01:57:07;100573.69;;;7.05;100.00
48624;BME280;34422;45.802;16.114;2022-11-15T01:59:35;100587.44;;;7.10;100.00
48624;BME280;34422;45.802;16.114;2022-11-15T02:02:02;100572.56;;;7.14;100.00
48624;BME280;34422;45.802;16.114;2022-11-15T02:04:36;100575.44;;;7.12;100.00
48624;BME280;34422;45.802;16.114;2022-11-15T02:07:05;100579.63;;;7.15;100.00
48624;BME280;34422;45.802;16.114;2022-11-15T02:09:36;100572.13;;;7.10;100.00
48624;BME280;34422;45.802;16.114;2022-11-15T02:12:04;100585.00;;;7.15;100.00
48624;BME280;34422;45.802;16.114;2022-11-15T02:14:32;100591.41;;;7.14;100.00
48624;BME280;34422;45.802;16.114;2022-11-15T02:17:26;100586.03;;;7.14;100.00
48624;BME280;34422;45.802;16.114;2022-11-15T02:25:06;100590.19;;;7.02;100.00
48624;BME280;34422;45.802;16.114;2022-11-15T02:30:38;100580.63;;;6.99;100.00
48624;BME280;34422;45.802;16.114;2022-11-15T02:38:40;100564.47;;;6.99;100.00
48624;BME280;34422;45.802;16.114;2022-11-15T02:41:15;100550.97;;;7.07;100.00
48624;BME280;34422;45.802;16.114;2022-11-15T02:43:49;100553.00;;;7.05;100.00
48624;BME280;34422;45.802;16.114;2022-11-15T02:46:39;100550.47;;;7.04;100.00
48624;BME280;34422;45.802;16.114;2022-11-15T02:49:28;100548.81;;;7.03;100.00
48624;BME280;34422;45.802;16.114;2022-11-15T02:51:57;100558.25;;;6.99;100.00
48624;BME280;34422;45.802;16.114;2022-11-15T02:54:26;100558.25;;;6.99;100.00
48624;BME280;34422;45.802;16.114;2022-11-15T02:56:54;100557.91;;;7.02;100.00
48624;BME280;34422;45.802;16.114;2022-11-15T02:59:42;100558.56;;;7.04;100.00
48624;BME280;34422;45.802;16.114;2022-11-15T03:05:48;100544.38;;;7.10;100.00
48624;BME280;34422;45.802;16.114;2022-11-15T03:08:31;100543.06;;;7.06;100.00
48624;BME280;34422;45.802;16.114;2022-11-15T03:11:09;100549.66;;;7.03;100.00
48624;BME280;34422;45.802;16.114;2022-11-15T03:14:01;100544.44;;;7.02;100.00
48624;BME280;34422;45.802;16.114;2022-11-15T03:16:55;100543.44;;;7.03;100.00
48624;BME280;34422;45.802;16.114;2022-11-15T03:19:32;100531.34;;;6.99;100.00
48624;BME280;34422;45.802;16.114;2022-11-15T03:22:03;100538.41;;;7.00;100.00
48624;BME280;34422;45.802;16.114;2022-11-15T03:24:36;100520.59;;;6.99;100.00
48624;BME280;34422;45.802;16.114;2022-11-15T03:27:06;100516.88;;;7.00;100.00
48624;BME280;34422;45.802;16.114;2022-11-15T03:29:39;100532.09;;;6.93;100.00
48624;BME280;34422;45.802;16.114;2022-11-15T03:32:15;100528.41;;;6.94;100.00
48624;BME280;34422;45.802;16.114;2022-11-15T03:34:44;100526.44;;;7.02;100.00
48624;BME280;34422;45.802;16.114;2022-11-15T03:37:15;100534.69;;;7.01;100.00
48624;BME280;34422;45.802;16.114;2022-11-15T03:39:43;100528.41;;;6.94;100.00
48624;BME280;34422;45.802;16.114;2022-11-15T03:42:25;100532.09;;;6.93;100.00
48624;BME280;34422;45.802;16.114;2022-11-15T03:45:08;100529.97;;;7.03;100.00
48624;BME280;34422;45.802;16.114;2022-11-15T03:47:41;100535.47;;;7.09;100.00
48624;BME280;34422;45.802;16.114;2022-11-15T03:50:17;100539.00;;;7.10;100.00
48624;BME280;34422;45.802;16.114;2022-11-15T03:52:46;100517.66;;;7.08;100.00
48624;BME280;34422;45.802;16.114;2022-11-15T03:55:17;100523.31;;;7.13;100.00
48624;BME280;34422;45.802;16.114;2022-11-15T03:57:44;100514.66;;;7.03;100.00
48624;BME280;34422;45.802;16.114;2022-11-15T04:00:11;100508.44;;;7.03;100.00
48624;BME280;34422;45.802;16.114;2022-11-15T04:02:38;100509.47;;;7.02;100.00
48624;BME280;34422;45.802;16.114;2022-11-15T04:05:05;100512.63;;;7.05;100.00
48624;BME280;34422;45.802;16.114;2022-11-15T04:07:32;100513.72;;;7.11;100.00
48624;BME280;34422;45.802;16.114;2022-11-15T04:09:59;100520.59;;;7.13;100.00
48624;BME280;34422;45.802;16.114;2022-11-15T04:12:30;100520.72;;;7.05;100.00
48624;BME280;34422;45.802;16.114;2022-11-15T04:15:08;100515.31;;;7.05;100.00
48624;BME280;34422;45.802;16.114;2022-11-15T04:17:47;100506.72;;;7.10;100.00
48624;BME280;34422;45.802;16.114;2022-11-15T04:20:18;100506.72;;;7.10;100.00
48624;BME280;34422;45.802;16.114;2022-11-15T04:23:11;100497.97;;;7.08;100.00
48624;BME280;34422;45.802;16.114;2022-11-15T04:26:09;100501.50;;;7.08;100.00
48624;BME280;34422;45.802;16.114;2022-11-15T04:28:38;100493.03;;;7.11;100.00
48624;BME280;34422;45.802;16.114;2022-11-15T04:31:24;100496.31;;;7.07;100.00
48624;BME280;34422;45.802;16.114;2022-11-15T04:33:52;100500.50;;;7.09;100.00
48624;BME280;34422;45.802;16.114;2022-11-15T04:36:19;100500.66;;;7.08;100.00
48624;BME280;34422;45.802;16.114;2022-11-15T04:39:05;100502.97;;;7.11;100.00
48624;BME280;34422;45.802;16.114;2022-11-15T04:41:32;100500.94;;;7.13;100.00
48624;BME280;34422;45.802;16.114;2022-11-15T04:43:58;100488.31;;;7.13;100.00
48624;BME280;34422;45.802;16.114;2022-11-15T04:46:26;100496.88;;;7.17;100.00
48624;BME280;34422;45.802;16.114;2022-11-15T04:48:53;100489.44;;;7.19;100.00
48624;BME280;34422;45.802;16.114;2022-11-15T04:51:21;100489.44;;;7.19;100.00
48624;BME280;34422;45.802;16.114;2022-11-15T04:53:48;100478.69;;;7.19;100.00
48624;BME280;34422;45.802;16.114;2022-11-15T04:56:14;100478.69;;;7.19;100.00
48624;BME280;34422;45.802;16.114;2022-11-15T04:58:41;100477.00;;;7.18;100.00
48624;BME280;34422;45.802;16.114;2022-11-15T05:01:09;100474.97;;;7.20;100.00
48624;BME280;34422;45.802;16.114;2022-11-15T05:03:36;100479.34;;;7.21;100.00
48624;BME280;34422;45.802;16.114;2022-11-15T05:06:21;100470.13;;;7.16;100.00
48624;BME280;34422;45.802;16.114;2022-11-15T05:08:48;100462.53;;;7.19;100.00
48624;BME280;34422;45.802;16.114;2022-11-15T05:11:15;100471.25;;;7.21;100.00
48624;BME280;34422;45.802;16.114;2022-11-15T05:13:42;100467.56;;;7.22;100.00
48624;BME280;34422;45.802;16.114;2022-11-15T05:16:09;100472.09;;;7.22;100.00
48624;BME280;34422;45.802;16.114;2022-11-15T05:18:35;100474.97;;;7.20;100.00
48624;BME280;34422;45.802;16.114;2022-11-15T05:21:07;100464.22;;;7.20;100.00
48624;BME280;34422;45.802;16.114;2022-11-15T05:23:34;100468.28;;;7.16;100.00
48624;BME280;34422;45.802;16.114;2022-11-15T05:26:03;100468.94;;;7.18;100.00
48624;BME280;34422;45.802;16.114;2022-11-15T05:28:30;100465.03;;;7.21;100.00
48624;BME280;34422;45.802;16.114;2022-11-15T05:31:04;100464.22;;;7.20;100.00
48624;BME280;34422;45.802;16.114;2022-11-15T05:33:32;100467.56;;;7.22;100.00
48624;BME280;34422;45.802;16.114;2022-11-15T05:36:06;100461.34;;;7.22;100.00
48624;BME280;34422;45.802;16.114;2022-11-15T05:38:34;100460.88;;;7.18;100.00
48624;BME280;34422;45.802;16.114;2022-11-15T05:41:01;100460.13;;;7.24;100.00
48624;BME280;34422;45.802;16.114;2022-11-15T05:43:30;100478.56;;;7.27;100.00
48624;BME280;34422;45.802;16.114;2022-11-15T05:45:59;100470.97;;;7.31;100.00
48624;BME280;34422;45.802;16.114;2022-11-15T05:48:26;100474.22;;;7.26;100.00
48624;BME280;34422;45.802;16.114;2022-11-15T05:50:53;100474.97;;;7.20;100.00
48624;BME280;34422;45.802;16.114;2022-11-15T05:53:21;100476.91;;;7.26;100.00
48624;BME280;34422;45.802;16.114;2022-11-15T05:55:49;100478.75;;;7.26;100.00
48624;BME280;34422;45.802;16.114;2022-11-15T05:58:18;100477.91;;;7.25;100.00
48624;BME280;34422;45.802;16.114;2022-11-15T06:00:46;100481.91;;;7.29;100.00
48624;BME280;34422;45.802;16.114;2022-11-15T06:03:14;100482.94;;;7.28;100.00
48624;BME280;34422;45.802;16.114;2022-11-15T06:05:41;100487.97;;;7.31;100.00
48624;BME280;34422;45.802;16.114;2022-11-15T06:08:07;100495.38;;;7.29;100.00
48624;BME280;34422;45.802;16.114;2022-11-15T06:10:35;100497.06;;;7.30;100.00
48624;BME280;34422;45.802;16.114;2022-11-15T06:13:04;100495.38;;;7.29;100.00
48624;BME280;34422;45.802;16.114;2022-11-15T06:15:33;100498.72;;;7.31;100.00
48624;BME280;34422;45.802;16.114;2022-11-15T06:18:01;100501.06;;;7.34;100.00
48624;BME280;34422;45.802;16.114;2022-11-15T06:20:29;100496.69;;;7.33;100.00
48624;BME280;34422;45.802;16.114;2022-11-15T06:23:02;100490.84;;;7.30;100.00
48624;BME280;34422;45.802;16.114;2022-11-15T06:25:30;100495.38;;;7.29;100.00
48624;BME280;34422;45.802;16.114;2022-11-15T06:27:58;100500.75;;;7.29;100.00
48624;BME280;34422;45.802;16.114;2022-11-15T06:30:26;100508.19;;;7.27;100.00
48624;BME280;34422;45.802;16.114;2022-11-15T06:33:03;100493.72;;;7.28;100.00
48624;BME280;34422;45.802;16.114;2022-11-15T06:35:33;100497.72;;;7.32;100.00
48624;BME280;34422;45.802;16.114;2022-11-15T06:38:06;100499.84;;;7.37;100.00
48624;BME280;34422;45.802;16.114;2022-11-15T06:40:35;100498.00;;;7.37;100.00
48624;BME280;34422;45.802;16.114;2022-11-15T06:43:04;100499.63;;;7.38;100.00
48624;BME280;34422;45.802;16.114;2022-11-15T06:45:32;100501.78;;;7.43;100.00
48624;BME280;34422;45.802;16.114;2022-11-15T06:47:59;100489.34;;;7.42;100.00
48624;BME280;34422;45.802;16.114;2022-11-15T06:50:27;100494.66;;;7.35;100.00
48624;BME280;34422;45.802;16.114;2022-11-15T06:52:54;100499.63;;;7.38;100.00
48624;BME280;34422;45.802;16.114;2022-11-15T06:55:22;100504.75;;;7.33;100.00
48624;BME280;34422;45.802;16.114;2022-11-15T06:57:50;100498.72;;;7.31;100.00
48624;BME280;34422;45.802;16.114;2022-11-15T07:00:19;100501.25;;;7.33;100.00
48624;BME280;34422;45.802;16.114;2022-11-15T07:02:48;100500.03;;;7.35;100.00
48624;BME280;34422;45.802;16.114;2022-11-15T07:05:15;100500.59;;;7.45;100.00
48624;BME280;34422;45.802;16.114;2022-11-15T07:07:50;100499.09;;;7.43;100.00
48624;BME280;34422;45.802;16.114;2022-11-15T07:10:18;100497.22;;;7.43;100.00
48624;BME280;34422;45.802;16.114;2022-11-15T07:12:49;100492.69;;;7.44;100.00
48624;BME280;34422;45.802;16.114;2022-11-15T07:15:19;100495.38;;;7.59;100.00
48624;BME280;34422;45.802;16.114;2022-11-15T07:17:47;100498.72;;;7.61;100.00
48624;BME280;34422;45.802;16.114;2022-11-15T07:20:17;100495.91;;;7.69;100.00
48624;BME280;34422;45.802;16.114;2022-11-15T07:22:44;100495.91;;;7.69;100.00
48624;BME280;34422;45.802;16.114;2022-11-15T07:25:12;100500.19;;;7.78;100.00
48624;BME280;34422;45.802;16.114;2022-11-15T07:27:42;100497.28;;;7.79;100.00
48624;BME280;34422;45.802;16.114;2022-11-15T07:30:10;100502.09;;;7.84;100.00
48624;BME280;34422;45.802;16.114;2022-11-15T07:32:38;100491.59;;;7.89;100.00
48624;BME280;34422;45.802;16.114;2022-11-15T07:35:06;100484.53;;;7.88;100.00
48624;BME280;34422;45.802;16.114;2022-11-15T07:37:34;100489.84;;;7.81;100.00
48624;BME280;34422;45.802;16.114;2022-11-15T07:40:01;100486.66;;;7.93;100.00
48624;BME280;34422;45.802;16.114;2022-11-15T07:42:31;100487.47;;;7.93;100.00
48624;BME280;34422;45.802;16.114;2022-11-15T07:45:19;100487.13;;;8.32;100.00
48624;BME280;34422;45.802;16.114;2022-11-15T07:47:49;100490.22;;;8.14;100.00
48624;BME280;34422;45.802;16.114;2022-11-15T07:50:17;100485.34;;;8.25;100.00
48624;BME280;34422;45.802;16.114;2022-11-15T07:52:45;100489.31;;;8.07;100.00
48624;BME280;34422;45.802;16.114;2022-11-15T07:55:14;100492.25;;;8.12;100.00
48624;BME280;34422;45.802;16.114;2022-11-15T07:57:41;100493.72;;;7.94;100.00
48624;BME280;34422;45.802;16.114;2022-11-15T08:00:09;100497.53;;;7.84;100.00
48624;BME280;34422;45.802;16.114;2022-11-15T08:02:37;100495.53;;;7.72;100.00
48624;BME280;34422;45.802;16.114;2022-11-15T08:05:07;100481.94;;;7.80;100.00
48624;BME280;34422;45.802;16.114;2022-11-15T08:07:34;100481.34;;;7.99;100.00
48624;BME280;34422;45.802;16.114;2022-11-15T08:10:02;100470.44;;;8.07;100.00
48624;BME280;34422;45.802;16.114;2022-11-15T08:12:31;100464.66;;;8.10;100.00
48624;BME280;34422;45.802;16.114;2022-11-15T08:14:59;100469.16;;;8.25;100.00
48624;BME280;34422;45.802;16.114;2022-11-15T08:17:27;100472.38;;;8.13;100.00
48624;BME280;34422;45.802;16.114;2022-11-15T08:19:54;100467.69;;;8.22;100.00
48624;BME280;34422;45.802;16.114;2022-11-15T08:22:22;100473.81;;;8.31;100.00
48624;BME280;34422;45.802;16.114;2022-11-15T08:24:50;100468.03;;;8.34;100.00
48624;BME280;34422;45.802;16.114;2022-11-15T08:27:17;100473.88;;;8.37;100.00
48624;BME280;34422;45.802;16.114;2022-11-15T08:29:45;100472.13;;;8.30;100.00
48624;BME280;34422;45.802;16.114;2022-11-15T08:32:14;100468.41;;;8.31;100.00
48624;BME280;34422;45.802;16.114;2022-11-15T08:34:43;100469.69;;;8.35;100.00
48624;BME280;34422;45.802;16.114;2022-11-15T08:37:10;100468.41;;;8.31;100.00
48624;BME280;34422;45.802;16.114;2022-11-15T08:39:39;100469.31;;;8.59;100.00
48624;BME280;34422;45.802;16.114;2022-11-15T08:42:08;100467.31;;;8.25;100.00
48624;BME280;34422;45.802;16.114;2022-11-15T08:44:37;100469.94;;;8.18;100.00
48624;BME280;34422;45.802;16.114;2022-11-15T08:47:05;100479.72;;;8.41;100.00
48624;BME280;34422;45.802;16.114;2022-11-15T08:49:33;100476.00;;;8.42;100.00
48624;BME280;34422;45.802;16.114;2022-11-15T08:52:00;100472.75;;;8.46;100.00
48624;BME280;34422;45.802;16.114;2022-11-15T08:54:28;100462.38;;;8.50;100.00
48624;BME280;34422;45.802;16.114;2022-11-15T08:56:56;100453.25;;;8.51;100.00
48624;BME280;34422;45.802;16.114;2022-11-15T08:59:23;100460.44;;;8.65;100.00
48624;BME280;34422;45.802;16.114;2022-11-15T09:01:51;100456.59;;;8.53;100.00
48624;BME280;34422;45.802;16.114;2022-11-15T09:04:22;100460.31;;;8.52;100.00
48624;BME280;34422;45.802;16.114;2022-11-15T09:06:50;100466.75;;;8.51;100.00
48624;BME280;34422;45.802;16.114;2022-11-15T09:09:18;100458.00;;;8.49;100.00
48624;BME280;34422;45.802;16.114;2022-11-15T09:11:45;100458.28;;;8.54;100.00
48624;BME280;34422;45.802;16.114;2022-11-15T09:14:14;100460.13;;;8.53;100.00
48624;BME280;34422;45.802;16.114;2022-11-15T09:16:42;100456.31;;;8.69;100.00
48624;BME280;34422;45.802;16.114;2022-11-15T09:19:09;100458.31;;;8.88;100.00
48624;BME280;34422;45.802;16.114;2022-11-15T09:21:36;100459.78;;;8.91;100.00
48624;BME280;34422;45.802;16.114;2022-11-15T09:24:03;100456.50;;;8.96;100.00
48624;BME280;34422;45.802;16.114;2022-11-15T09:26:31;100449.69;;;9.00;100.00
48624;BME280;34422;45.802;16.114;2022-11-15T09:28:58;100437.44;;;8.97;100.00
48624;BME280;34422;45.802;16.114;2022-11-15T09:31:26;100439.53;;;9.02;100.00
48624;BME280;34422;45.802;16.114;2022-11-15T09:33:55;100437.38;;;8.90;100.00
48624;BME280;34422;45.802;16.114;2022-11-15T09:36:23;100441.81;;;9.05;100.00
48624;BME280;34422;45.802;16.114;2022-11-15T09:38:50;100431.59;;;8.94;100.00
48624;BME280;34422;45.802;16.114;2022-11-15T09:41:30;100437.69;;;9.09;100.00
48624;BME280;34422;45.802;16.114;2022-11-15T09:49:24;100440.88;;;9.19;100.00
48624;BME280;34422;45.802;16.114;2022-11-15T09:51:54;100434.81;;;9.17;100.00
48624;BME280;34422;45.802;16.114;2022-11-15T09:57:04;100440.19;;;9.51;100.00
48624;BME280;34422;45.802;16.114;2022-11-15T09:59:47;100435.84;;;9.50;100.00
48624;BME280;34422;45.802;16.114;2022-11-15T10:02:29;100436.31;;;9.74;100.00
48624;BME280;34422;45.802;16.114;2022-11-15T10:05:02;100429.91;;;9.81;100.00
48624;BME280;34422;45.802;16.114;2022-11-15T10:12:58;100413.94;;;9.99;100.00
48624;BME280;34422;45.802;16.114;2022-11-15T10:15:27;100408.50;;;9.86;100.00
48624;BME280;34422;45.802;16.114;2022-11-15T10:18:24;100405.38;;;9.70;100.00
48624;BME280;34422;45.802;16.114;2022-11-15T10:20:52;100395.34;;;9.63;100.00
48624;BME280;34422;45.802;16.114;2022-11-15T10:23:23;100397.88;;;9.72;100.00
48624;BME280;34422;45.802;16.114;2022-11-15T10:26:00;100391.19;;;9.54;100.00
48624;BME280;34422;45.802;16.114;2022-11-15T10:28:29;100388.72;;;9.73;100.00
48624;BME280;34422;45.802;16.114;2022-11-15T10:30:59;100389.16;;;9.70;100.00
48624;BME280;34422;45.802;16.114;2022-11-15T10:49:28;100365.00;;;9.61;100.00
48624;BME280;34422;45.802;16.114;2022-11-15T10:52:01;100352.13;;;9.63;100.00
48624;BME280;34422;45.802;16.114;2022-11-15T10:54:37;100344.28;;;9.82;100.00
48624;BME280;34422;45.802;16.114;2022-11-15T10:57:12;100332.84;;;9.80;100.00
48624;BME280;34422;45.802;16.114;2022-11-15T10:59:45;100330.56;;;9.90;100.00
48624;BME280;34422;45.802;16.114;2022-11-15T11:02:31;100325.16;;;10.03;100.00
48624;BME280;34422;45.802;16.114;2022-11-15T11:04:59;100318.09;;;10.15;100.00
48624;BME280;34422;45.802;16.114;2022-11-15T11:07:34;100316.00;;;10.17;100.00
48624;BME280;34422;45.802;16.114;2022-11-15T11:10:20;100308.94;;;10.10;100.00
48624;BME280;34422;45.802;16.114;2022-11-15T11:12:51;100311.84;;;10.02;100.00
48624;BME280;34422;45.802;16.114;2022-11-15T11:15:19;100316.00;;;10.04;100.00
48624;BME280;34422;45.802;16.114;2022-11-15T11:28:59;100299.38;;;9.94;100.00
48624;BME280;34422;45.802;16.114;2022-11-15T11:34:13;100282.53;;;9.92;100.00
48624;BME280;34422;45.802;16.114;2022-11-15T11:40:32;100268.78;;;9.74;100.00
48624;BME280;34422;45.802;16.114;2022-11-15T11:50:37;100261.94;;;10.11;100.00
48624;BME280;34422;45.802;16.114;2022-11-15T11:53:13;100250.28;;;10.17;100.00
48624;BME280;34422;45.802;16.114;2022-11-15T11:55:48;100247.41;;;10.18;100.00
48624;BME280;34422;45.802;16.114;2022-11-15T11:58:22;100254.03;;;10.03;100.00
48624;BME280;34422;45.802;16.114;2022-11-15T12:01:01;100243.63;;;10.06;100.00
48624;BME280;34422;45.802;16.114;2022-11-15T12:03:42;100239.06;;;10.07;100.00
48624;BME280;34422;45.802;16.114;2022-11-15T12:06:41;100233.25;;;10.10;100.00
48624;BME280;34422;45.802;16.114;2022-11-15T12:09:14;100221.78;;;10.27;100.00
48624;BME280;34422;45.802;16.114;2022-11-15T12:12:15;100225.69;;;10.45;100.00
48624;BME280;34422;45.802;16.114;2022-11-15T12:14:50;100217.47;;;10.71;100.00
48624;BME280;34422;45.802;16.114;2022-11-15T12:17:24;100227.31;;;10.65;100.00
48624;BME280;34422;45.802;16.114;2022-11-15T12:19:56;100209.03;;;10.48;100.00
48624;BME280;34422;45.802;16.114;2022-11-15T12:22:39;100206.56;;;10.46;100.00
48624;BME280;34422;45.802;16.114;2022-11-15T12:30:20;100199.88;;;10.49;100.00
48624;BME280;34422;45.802;16.114;2022-11-15T12:32:55;100193.59;;;10.61;100.00
48624;BME280;34422;45.802;16.114;2022-11-15T12:35:29;100197.31;;;10.67;100.00
48624;BME280;34422;45.802;16.114;2022-11-15T12:37:59;100182.31;;;10.71;100.00
48624;BME280;34422;45.802;16.114;2022-11-15T12:40:30;100180.03;;;10.68;100.00
48624;BME280;34422;45.802;16.114;2022-11-15T12:45:35;100174.72;;;10.93;100.00
48624;BME280;34422;45.802;16.114;2022-11-15T13:06:48;100155.56;;;10.88;100.00
48624;BME280;34422;45.802;16.114;2022-11-15T13:12:00;100154.16;;;11.10;100.00
48624;BME280;34422;45.802;16.114;2022-11-15T13:14:40;100152.56;;;11.02;100.00
48624;BME280;34422;45.802;16.114;2022-11-15T13:17:35;100149.75;;;10.84;100.00
48624;BME280;34422;45.802;16.114;2022-11-15T13:25:50;100126.91;;;10.74;100.00
48624;BME280;34422;45.802;16.114;2022-11-15T13:28:35;100129.88;;;10.65;100.00
48624;BME280;34422;45.802;16.114;2022-11-15T13:33:45;100127.00;;;10.54;100.00
48624;BME280;34422;45.802;16.114;2022-11-15T13:39:04;100127.41;;;10.57;100.00
48624;BME280;34422;45.802;16.114;2022-11-15T13:41:34;100126.38;;;10.58;100.00
48624;BME280;34422;45.802;16.114;2022-11-15T13:44:27;100110.72;;;10.67;100.00
48624;BME280;34422;45.802;16.114;2022-11-15T13:47:06;100113.38;;;10.74;100.00
48624;BME280;34422;45.802;16.114;2022-11-15T13:49:34;100108.94;;;10.86;100.00
48624;BME280;34422;45.802;16.114;2022-11-15T13:52:05;100108.31;;;10.84;100.00
48624;BME280;34422;45.802;16.114;2022-11-15T14:00:03;100098.50;;;10.89;100.00
48624;BME280;34422;45.802;16.114;2022-11-15T14:02:35;100097.72;;;10.82;100.00
48624;BME280;34422;45.802;16.114;2022-11-15T14:05:21;100092.75;;;10.79;100.00
48624;BME280;34422;45.802;16.114;2022-11-15T14:07:56;100098.75;;;10.81;100.00
48624;BME280;34422;45.802;16.114;2022-11-15T14:10:35;100096.75;;;10.70;100.00
48624;BME280;34422;45.802;16.114;2022-11-15T14:13:09;100092.75;;;10.79;100.00
48624;BME280;34422;45.802;16.114;2022-11-15T14:15:39;100096.50;;;10.78;100.00
48624;BME280;34422;45.802;16.114;2022-11-15T14:18:39;100091.69;;;10.80;100.00
48624;BME280;34422;45.802;16.114;2022-11-15T14:21:08;100096.66;;;10.83;100.00
48624;BME280;34422;45.802;16.114;2022-11-15T14:23:36;100093.94;;;10.90;100.00
48624;BME280;34422;45.802;16.114;2022-11-15T14:26:04;100089.81;;;10.81;100.00
48624;BME280;34422;45.802;16.114;2022-11-15T14:28:33;100076.28;;;10.81;100.00
48624;BME280;34422;45.802;16.114;2022-11-15T14:31:14;100074.19;;;10.83;100.00
48624;BME280;34422;45.802;16.114;2022-11-15T14:33:43;100084.03;;;10.77;100.00
48624;BME280;34422;45.802;16.114;2022-11-15T14:36:17;100071.53;;;10.76;100.00
48624;BME280;34422;45.802;16.114;2022-11-15T14:38:46;100079.91;;;10.68;100.00
48624;BME280;34422;45.802;16.114;2022-11-15T14:41:25;100068.69;;;10.64;100.00
48624;BME280;34422;45.802;16.114;2022-11-15T14:43:59;100069.34;;;10.60;100.00
48624;BME280;34422;45.802;16.114;2022-11-15T14:46:27;100070.03;;;10.49;100.00
48624;BME280;34422;45.802;16.114;2022-11-15T14:48:55;100060.88;;;10.50;100.00
48624;BME280;34422;45.802;16.114;2022-11-15T14:51:23;100053.97;;;10.54;100.00
48624;BME280;34422;45.802;16.114;2022-11-15T14:53:52;100050.63;;;10.58;100.00
48624;BME280;34422;45.802;16.114;2022-11-15T14:56:20;100053.38;;;10.52;100.00
48624;BME280;34422;45.802;16.114;2022-11-15T14:58:47;100043.59;;;10.51;100.00